createdAt,value
2022-08-26T00:00:33.868Z,99362.88
2022-08-26T00:02:09.377Z,99362.13
2022-08-26T00:03:41.586Z,99358.84
2022-08-26T00:05:13.693Z,99355.47
2022-08-26T00:06:46.258Z,99359.03
2022-08-26T00:08:20.663Z,99349.25
2022-08-26T00:09:54.331Z,99346.94
2022-08-26T00:11:28.135Z,99350.41
2022-08-26T00:13:00.957Z,99345.16
2022-08-26T00:14:33.050Z,99353.97
2022-08-26T00:16:07.756Z,99348.00
2022-08-26T00:17:40.273Z,99346.50
2022-08-26T00:19:12.614Z,99348.38
2022-08-26T00:20:45.235Z,99348.47
2022-08-26T00:22:21.642Z,99347.63
2022-08-26T00:23:53.758Z,99345.94
2022-08-26T00:25:26.214Z,99344.25
2022-08-26T00:26:58.531Z,99341.63
2022-08-26T00:28:30.577Z,99349.69
2022-08-26T00:30:05.746Z,99345.69
2022-08-26T00:31:37.944Z,99346.00
2022-08-26T00:33:11.176Z,99342.81
2022-08-26T00:34:43.193Z,99346.66
2022-08-26T00:36:20.110Z,99343.09
2022-08-26T00:37:53.085Z,99343.09
2022-08-26T00:39:25.225Z,99346.03
2022-08-26T00:40:57.901Z,99346.94
2022-08-26T00:42:30.826Z,99345.31
2022-08-26T00:44:03.003Z,99347.22
2022-08-26T00:45:50.356Z,99341.22
2022-08-26T00:47:31.946Z,99344.66
2022-08-26T00:49:14.369Z,99341.00
2022-08-26T00:50:54.717Z,99336.63
2022-08-26T00:52:27.057Z,99339.34
2022-08-26T00:54:02.865Z,99340.25
2022-08-26T00:55:38.267Z,99342.13
2022-08-26T00:57:16.497Z,99341.38
2022-08-26T00:58:48.898Z,99343.56
2022-08-26T01:00:26.757Z,99338.44
2022-08-26T01:01:58.943Z,99341.31
2022-08-26T01:03:32.546Z,99343.94
2022-08-26T01:05:07.978Z,99343.09
2022-08-26T01:06:40.707Z,99344.88
2022-08-26T01:08:16.361Z,99353.78
2022-08-26T01:09:48.560Z,99351.63
2022-08-26T01:11:21.713Z,99348.44
2022-08-26T01:13:00.922Z,99352.75
2022-08-26T01:14:34.823Z,99344.88
2022-08-26T01:16:12.607Z,99362.31
2022-08-26T01:17:44.664Z,99351.16
2022-08-26T01:19:23.369Z,99343.00
2022-08-26T01:21:13.643Z,99355.19
2022-08-26T01:22:58.473Z,99355.38
2022-08-26T01:24:33.823Z,99351.34
2022-08-26T01:26:19.658Z,99358.28
2022-08-26T01:27:53.456Z,99355.75
2022-08-26T01:29:30.076Z,99359.34
2022-08-26T01:31:03.941Z,99359.13
2022-08-26T01:32:38.981Z,99358.28
2022-08-26T01:34:22.766Z,99357.47
2022-08-26T01:35:54.872Z,99355.00
2022-08-26T01:37:29.976Z,99357.53
2022-08-26T01:39:03.542Z,99352.47
2022-08-26T01:42:17.482Z,99358.75
2022-08-26T01:43:52.658Z,99352.00
2022-08-26T01:45:27.434Z,99354.63
2022-08-26T01:47:00.090Z,99348.91
2022-08-26T01:48:34.869Z,99358.38
2022-08-26T01:50:12.002Z,99351.31
2022-08-26T01:51:44.767Z,99344.22
2022-08-26T01:53:19.298Z,99351.06
2022-08-26T01:54:54.456Z,99350.41
2022-08-26T01:56:33.281Z,99348.91
2022-08-26T01:58:12.135Z,99348.06
2022-08-26T01:59:44.317Z,99353.41
2022-08-26T02:01:16.817Z,99351.63
2022-08-26T02:02:51.832Z,99349.94
2022-08-26T02:05:00.369Z,99349.06
2022-08-26T02:06:32.868Z,99340.47
2022-08-26T02:08:06.359Z,99343.94
2022-08-26T02:09:41.239Z,99344.78
2022-08-26T02:12:46.370Z,99345.59
2022-08-26T02:14:22.645Z,99346.34
2022-08-26T02:15:55.634Z,99347.47
2022-08-26T02:17:33.320Z,99342.41
2022-08-26T02:19:11.657Z,99349.44
2022-08-26T02:20:51.702Z,99342.78
2022-08-26T02:22:24.860Z,99354.94
2022-08-26T02:23:57.168Z,99351.84
2022-08-26T02:25:55.809Z,99351.09
2022-08-26T02:27:33.147Z,99354.47
2022-08-26T02:29:28.473Z,99348.38
2022-08-26T02:31:00.761Z,99349.53
2022-08-26T02:32:34.893Z,99356.66
2022-08-26T02:34:10.972Z,99354.03
2022-08-26T02:35:43.616Z,99355.13
2022-08-26T02:37:15.763Z,99349.06
2022-08-26T02:38:49.919Z,99351.69
2022-08-26T02:40:28.410Z,99352.44
2022-08-26T02:42:00.645Z,99351.75
2022-08-26T02:43:33.056Z,99356.25
2022-08-26T02:45:06.619Z,99358.59
2022-08-26T02:46:39.478Z,99354.31
2022-08-26T02:48:18.800Z,99362.91
2022-08-26T02:49:51.303Z,99364.03
2022-08-26T02:51:23.330Z,99362.44
2022-08-26T02:52:56.052Z,99365.13
2022-08-26T02:54:28.272Z,99366.84
2022-08-26T02:56:01.043Z,99365.41
2022-08-26T02:57:33.602Z,99372.59
2022-08-26T02:59:05.769Z,99367.44
2022-08-26T03:00:39.755Z,99369.41
2022-08-26T03:02:25.322Z,99371.28
2022-08-26T03:03:58.302Z,99378.44
2022-08-26T03:05:30.456Z,99374.25
2022-08-26T03:07:03.289Z,99375.34
2022-08-26T03:08:35.362Z,99373.75
2022-08-26T03:10:08.496Z,99383.34
2022-08-26T03:11:41.135Z,99379.22
2022-08-26T03:13:13.577Z,99378.31
2022-08-26T03:16:23.884Z,99371.63
2022-08-26T03:17:56.173Z,99387.00
2022-08-26T03:19:29.371Z,99386.91
2022-08-26T03:21:15.209Z,99384.31
2022-08-26T03:22:47.321Z,99381.84
2022-08-26T03:24:21.063Z,99379.31
2022-08-26T03:25:54.084Z,99383.81
2022-08-26T03:27:26.139Z,99384.72
2022-08-26T03:29:17.556Z,99384.47
2022-08-26T03:30:49.622Z,99389.69
2022-08-26T03:32:21.996Z,99386.50
2022-08-26T03:33:59.984Z,99387.25
2022-08-26T03:35:33.680Z,99389.88
2022-08-26T03:37:05.886Z,99390.97
2022-08-26T03:38:38.116Z,99396.97
2022-08-26T03:40:11.882Z,99394.44
2022-08-26T03:41:45.366Z,99401.38
2022-08-26T03:43:18.010Z,99388.34
2022-08-26T03:44:51.849Z,99397.06
2022-08-26T03:46:24.039Z,99394.69
2022-08-26T03:47:59.044Z,99396.56
2022-08-26T03:49:32.156Z,99398.34
2022-08-26T03:51:06.066Z,99394.97
2022-08-26T03:52:43.045Z,99401.09
2022-08-26T03:54:15.905Z,99400.28
2022-08-26T03:55:47.981Z,99399.19
2022-08-26T03:57:24.243Z,99400.69
2022-08-26T03:58:56.434Z,99387.41
2022-08-26T04:00:28.996Z,99398.66
2022-08-26T04:02:04.209Z,99389.03
2022-08-26T04:04:00.603Z,99397.75
2022-08-26T04:05:33.045Z,99400.44
2022-08-26T04:07:05.551Z,99403.31
2022-08-26T04:08:38.539Z,99393.88
2022-08-26T04:10:13.252Z,99399.00
2022-08-26T04:11:46.013Z,99397.47
2022-08-26T04:13:22.513Z,99388.09
2022-08-26T04:14:54.643Z,99382.97
2022-08-26T04:16:29.851Z,99387.25
2022-08-26T04:18:02.405Z,99391.72
2022-08-26T04:21:08.547Z,99390.91
2022-08-26T04:22:42.853Z,99387.34
2022-08-26T04:24:16.519Z,99390.81
2022-08-26T04:25:49.814Z,99398.69
2022-08-26T04:27:21.975Z,99393.25
2022-08-26T04:28:55.695Z,99394.84
2022-08-26T04:30:28.019Z,99401.94
2022-08-26T04:32:00.646Z,99399.31
2022-08-26T04:33:33.298Z,99392.50
2022-08-26T04:35:06.248Z,99392.50
2022-08-26T04:36:38.953Z,99391.66
2022-08-26T04:38:11.738Z,99395.72
2022-08-26T04:39:45.046Z,99404.22
2022-08-26T04:41:18.809Z,99396.38
2022-08-26T04:42:50.941Z,99401.19
2022-08-26T04:44:25.268Z,99404.66
2022-08-26T04:45:59.923Z,99404.56
2022-08-26T04:47:34.690Z,99413.19
2022-08-26T04:50:42.979Z,99400.59
2022-08-26T04:52:15.741Z,99409.88
2022-08-26T04:53:48.264Z,99408.09
2022-08-26T04:55:25.308Z,99409.06
2022-08-26T04:57:12.154Z,99407.28
2022-08-26T04:58:44.312Z,99404.72
2022-08-26T05:00:16.942Z,99404.66
2022-08-26T05:01:51.849Z,99406.09
2022-08-26T05:03:25.820Z,99416.38
2022-08-26T05:04:59.169Z,99398.63
2022-08-26T05:06:31.695Z,99410.38
2022-08-26T05:08:13.158Z,99411.28
2022-08-26T05:09:45.665Z,99417.84
2022-08-26T05:11:17.972Z,99412.00
2022-08-26T05:12:50.562Z,99412.38
2022-08-26T05:14:23.522Z,99411.19
2022-08-26T05:16:01.192Z,99403.91
2022-08-26T05:17:33.708Z,99407.56
2022-08-26T05:19:08.602Z,99414.69
2022-08-26T05:20:49.426Z,99408.78
2022-08-26T05:22:21.560Z,99410.88
2022-08-26T05:23:55.469Z,99413.59
2022-08-26T05:25:28.857Z,99407.69
2022-08-26T05:27:03.451Z,99411.44
2022-08-26T05:28:43.841Z,99400.34
2022-08-26T05:30:16.364Z,99403.25
2022-08-26T05:31:51.939Z,99399.19
2022-08-26T05:33:24.815Z,99396.91
2022-08-26T05:34:57.542Z,99396.44
2022-08-26T05:36:33.946Z,99391.53
2022-08-26T05:38:12.649Z,99397.22
2022-08-26T05:39:51.158Z,99395.88
2022-08-26T05:41:36.103Z,99395.31
2022-08-26T05:43:12.551Z,99402.69
2022-08-26T05:44:53.768Z,99395.88
2022-08-26T05:46:28.848Z,99402.41
2022-08-26T05:48:01.672Z,99395.03
2022-08-26T05:49:34.040Z,99393.03
2022-08-26T05:51:12.603Z,99401.38
2022-08-26T05:52:45.071Z,99395.91
2022-08-26T05:54:21.361Z,99406.13
2022-08-26T05:55:56.573Z,99398.78
2022-08-26T05:57:30.368Z,99408.13
2022-08-26T05:59:03.177Z,99400.75
2022-08-26T06:00:39.296Z,99402.22
2022-08-26T06:02:14.099Z,99400.34
2022-08-26T06:03:49.547Z,99406.75
2022-08-26T06:05:22.750Z,99406.44
2022-08-26T06:06:55.404Z,99404.28
2022-08-26T06:08:27.655Z,99417.63
2022-08-26T06:10:28.157Z,99404.03
2022-08-26T06:11:52.136Z,99404.34
2022-08-26T06:13:27.649Z,99405.38
2022-08-26T06:15:04.558Z,99410.94
2022-08-26T06:16:41.001Z,99408.38
2022-08-26T06:18:15.610Z,99412.25
2022-08-26T06:19:48.030Z,99409.28
2022-08-26T06:21:26.025Z,99409.56
2022-08-26T06:23:16.547Z,99414.34
2022-08-26T06:25:07.241Z,99412.72
2022-08-26T06:26:42.807Z,99410.94
2022-08-26T06:28:17.673Z,99405.00
2022-08-26T06:29:51.962Z,99413.19
2022-08-26T06:31:25.774Z,99417.66
2022-08-26T06:32:58.282Z,99416.97
2022-08-26T06:34:31.551Z,99419.03
2022-08-26T06:36:04.401Z,99423.50
2022-08-26T06:37:37.594Z,99414.69
2022-08-26T06:39:12.308Z,99416.59
2022-08-26T06:40:48.986Z,99418.44
2022-08-26T06:42:22.802Z,99415.19
2022-08-26T06:43:55.193Z,99414.22
2022-08-26T06:45:28.171Z,99416.16
2022-08-26T06:47:00.615Z,99417.13
2022-08-26T06:48:33.195Z,99412.06
2022-08-26T06:50:05.633Z,99409.53
2022-08-26T06:51:39.901Z,99413.25
2022-08-26T06:53:13.919Z,99408.19
2022-08-26T06:54:46.325Z,99408.41
2022-08-26T06:56:22.681Z,99412.81
2022-08-26T06:57:58.305Z,99400.19
2022-08-26T06:59:31.554Z,99412.22
2022-08-26T07:01:11.296Z,99401.84
2022-08-26T07:02:46.144Z,99406.34
2022-08-26T07:04:22.076Z,99411.41
2022-08-26T07:05:55.031Z,99410.81
2022-08-26T07:07:27.888Z,99411.16
2022-08-26T07:09:04.415Z,99410.47
2022-08-26T07:10:37.231Z,99413.13
2022-08-26T07:12:10.225Z,99408.69
2022-08-26T07:13:43.631Z,99415.41
2022-08-26T07:15:16.127Z,99411.91
2022-08-26T07:16:48.525Z,99416.38
2022-08-26T07:18:21.797Z,99416.38
2022-08-26T07:19:55.376Z,99413.41
2022-08-26T07:21:27.615Z,99420.94
2022-08-26T07:23:00.017Z,99415.53
2022-08-26T07:24:36.878Z,99422.13
2022-08-26T07:26:20.601Z,99414.03
2022-08-26T07:27:54.284Z,99411.03
2022-08-26T07:29:26.913Z,99413.28
2022-08-26T07:31:00.084Z,99410.00
2022-08-26T07:32:32.927Z,99400.56
2022-08-26T07:34:06.775Z,99405.00
2022-08-26T07:35:39.761Z,99403.78
2022-08-26T07:37:12.445Z,99404.50
2022-08-26T07:38:46.016Z,99398.69
2022-08-26T07:40:20.378Z,99394.66
2022-08-26T07:41:53.402Z,99391.38
2022-08-26T07:43:25.782Z,99392.38
2022-08-26T07:44:58.203Z,99392.84
2022-08-26T07:46:30.564Z,99394.25
2022-08-26T07:48:03.994Z,99386.84
2022-08-26T07:49:36.889Z,99379.47
2022-08-26T07:51:09.625Z,99383.53
2022-08-26T07:52:42.909Z,99387.72
2022-08-26T07:54:17.087Z,99386.63
2022-08-26T07:55:49.820Z,99389.28
2022-08-26T07:57:22.135Z,99388.28
2022-08-26T07:58:56.836Z,99382.59
2022-08-26T08:00:33.069Z,99386.66
2022-08-26T08:02:05.386Z,99383.75
2022-08-26T08:03:38.499Z,99383.31
2022-08-26T08:05:11.984Z,99380.13
2022-08-26T08:06:45.340Z,99381.44
2022-08-26T08:08:27.930Z,99381.97
2022-08-26T08:10:03.744Z,99382.41
2022-08-26T08:11:38.037Z,99376.69
2022-08-26T08:13:11.089Z,99370.84
2022-08-26T08:14:45.799Z,99372.25
2022-08-26T08:16:18.849Z,99372.81
2022-08-26T08:17:51.775Z,99372.53
2022-08-26T08:19:28.405Z,99373.91
2022-08-26T08:21:21.610Z,99370.00
2022-08-26T08:22:56.404Z,99370.41
2022-08-26T08:24:30.032Z,99376.41
2022-08-26T08:26:08.253Z,99372.25
2022-08-26T08:27:41.647Z,99375.03
2022-08-26T08:29:14.143Z,99365.94
2022-08-26T08:30:47.676Z,99365.94
2022-08-26T08:33:52.049Z,99353.94
2022-08-26T08:35:26.818Z,99373.63
2022-08-26T08:36:59.145Z,99371.81
2022-08-26T08:38:32.298Z,99365.28
2022-08-26T08:40:05.871Z,99375.16
2022-08-26T08:41:58.564Z,99373.38
2022-08-26T08:43:41.215Z,99369.28
2022-08-26T08:45:18.729Z,99372.50
2022-08-26T08:47:00.463Z,99359.66
2022-08-26T08:48:36.647Z,99355.72
2022-08-26T08:50:16.310Z,99361.13
2022-08-26T08:51:57.106Z,99355.41
2022-08-26T08:53:36.312Z,99350.34
2022-08-26T08:55:11.051Z,99355.34
2022-08-26T08:56:54.125Z,99353.38
2022-08-26T08:58:57.851Z,99344.25
2022-08-26T09:00:47.522Z,99350.00
2022-08-26T09:02:58.156Z,99358.59
2022-08-26T09:04:40.822Z,99343.22
2022-08-26T09:06:20.897Z,99346.69
2022-08-26T09:07:58.416Z,99342.91
2022-08-26T09:09:38.176Z,99341.78
2022-08-26T09:11:11.159Z,99346.09
2022-08-26T09:12:44.020Z,99339.81
2022-08-26T09:14:16.341Z,99345.69
2022-08-26T09:15:58.428Z,99340.41
2022-08-26T09:18:10.794Z,99333.53
2022-08-26T09:19:52.844Z,99336.06
2022-08-26T09:21:25.508Z,99339.41
2022-08-26T09:22:58.013Z,99331.09
2022-08-26T09:27:46.110Z,99331.72
2022-08-26T09:29:28.417Z,99329.78
2022-08-26T09:31:11.695Z,99330.75
2022-08-26T09:32:44.864Z,99334.94
2022-08-26T09:34:28.965Z,99331.84
2022-08-26T09:36:26.804Z,99328.41
2022-08-26T09:37:59.161Z,99323.94
2022-08-26T09:39:35.112Z,99322.19
2022-08-26T09:41:37.346Z,99324.78
2022-08-26T09:43:25.537Z,99324.31
2022-08-26T09:44:57.798Z,99319.97
2022-08-26T09:46:30.618Z,99322.31
2022-08-26T09:48:03.843Z,99322.00
2022-08-26T09:49:39.517Z,99314.56
2022-08-26T09:51:32.655Z,99311.13
2022-08-26T09:53:14.984Z,99310.78
2022-08-26T09:55:06.679Z,99305.84
2022-08-26T09:56:40.357Z,99317.03
2022-08-26T09:58:31.428Z,99312.09
2022-08-26T10:00:23.750Z,99308.47
2022-08-26T10:03:38.962Z,99310.50
2022-08-26T10:05:18.376Z,99307.03
2022-08-26T10:07:10.108Z,99310.22
2022-08-26T10:08:47.604Z,99297.56
2022-08-26T10:10:29.754Z,99306.53
2022-08-26T10:12:08.704Z,99301.59
2022-08-26T10:13:50.014Z,99302.56
2022-08-26T10:15:24.189Z,99298.25
2022-08-26T10:17:13.316Z,99311.91
2022-08-26T10:19:19.330Z,99307.63
2022-08-26T10:21:15.543Z,99305.19
2022-08-26T10:22:58.985Z,99306.31
2022-08-26T10:24:36.885Z,99305.00
2022-08-26T10:26:24.763Z,99305.66
2022-08-26T10:28:21.792Z,99304.53
2022-08-26T10:30:00.715Z,99303.38
2022-08-26T10:31:40.872Z,99298.03
2022-08-26T10:33:18.923Z,99303.53
2022-08-26T10:34:52.129Z,99294.38
2022-08-26T10:37:14.753Z,99299.28
2022-08-26T10:38:39.406Z,99298.78
2022-08-26T10:40:24.758Z,99293.28
2022-08-26T10:42:03.168Z,99298.63
2022-08-26T10:44:13.165Z,99301.31
2022-08-26T10:45:51.774Z,99301.84
2022-08-26T10:47:35.943Z,99307.19
2022-08-26T10:49:14.356Z,99308.56
2022-08-26T10:50:47.706Z,99304.22
2022-08-26T10:52:46.838Z,99304.22
2022-08-26T10:54:27.925Z,99302.88
2022-08-26T10:56:19.024Z,99302.69
2022-08-26T10:58:00.014Z,99297.22
2022-08-26T11:00:31.419Z,99299.53
2022-08-26T11:02:32.470Z,99297.22
2022-08-26T11:04:35.127Z,99306.22
2022-08-26T11:06:25.926Z,99294.59
2022-08-26T11:08:21.326Z,99294.59
2022-08-26T11:11:46.952Z,99282.59
2022-08-26T11:13:19.333Z,99279.09
2022-08-26T11:14:56.173Z,99276.78
2022-08-26T11:16:43.627Z,99280.13
2022-08-26T11:18:40.884Z,99276.28
2022-08-26T11:20:19.016Z,99275.63
2022-08-26T11:22:06.743Z,99273.09
2022-08-26T11:23:50.723Z,99273.47
2022-08-26T11:25:29.965Z,99270.28
2022-08-26T11:27:03.277Z,99269.31
2022-08-26T11:28:50.543Z,99277.47
2022-08-26T11:30:24.158Z,99272.97
2022-08-26T11:31:57.168Z,99277.13
2022-08-26T11:33:51.587Z,99273.63
2022-08-26T11:35:24.500Z,99269.47
2022-08-26T11:36:58.270Z,99269.78
2022-08-26T11:38:31.288Z,99270.94
2022-08-26T11:40:09.231Z,99267.94
2022-08-26T11:41:46.964Z,99270.94
2022-08-26T11:43:22.792Z,99262.25
2022-08-26T11:46:36.280Z,99253.25
2022-08-26T11:48:18.631Z,99255.59
2022-08-26T11:49:50.894Z,99258.25
2022-08-26T11:51:25.008Z,99254.09
2022-08-26T11:53:02.464Z,99252.59
2022-08-26T11:54:35.497Z,99258.59
2022-08-26T11:56:18.288Z,99254.25
2022-08-26T11:58:01.789Z,99250.25
2022-08-26T11:59:39.582Z,99249.22
2022-08-26T12:01:14.441Z,99248.91
2022-08-26T12:02:50.502Z,99243.38
2022-08-26T12:04:35.403Z,99235.69
2022-08-26T12:06:23.705Z,99233.53
2022-08-26T12:07:56.056Z,99235.16
2022-08-26T12:22:43.640Z,99218.13
2022-08-26T12:24:21.017Z,99212.78
2022-08-26T12:26:02.614Z,99210.41
2022-08-26T12:27:41.927Z,99212.75
2022-08-26T12:29:28.129Z,99206.00
2022-08-26T12:49:48.684Z,99196.50
2022-08-26T12:51:32.634Z,99190.97
2022-08-26T12:53:10.837Z,99193.81
2022-08-26T13:55:28.894Z,99134.53
2022-08-26T13:57:01.446Z,99144.22
2022-08-26T13:58:33.582Z,99144.56
2022-08-26T14:00:07.404Z,99137.44
2022-08-26T14:01:43.436Z,99151.03
2022-08-26T14:03:15.871Z,99144.81
2022-08-26T14:04:48.206Z,99152.41
2022-08-26T14:06:21.030Z,99150.50
2022-08-26T14:07:53.952Z,99144.00
2022-08-26T14:09:26.129Z,99148.97
2022-08-26T14:10:59.067Z,99147.38
2022-08-26T14:12:31.254Z,99147.66
2022-08-26T14:14:03.690Z,99152.00
2022-08-26T14:15:36.693Z,99141.78
2022-08-26T14:17:08.742Z,99146.22
2022-08-26T14:18:45.211Z,99147.91
2022-08-26T14:20:31.081Z,99146.53
2022-08-26T14:22:03.855Z,99148.91
2022-08-26T14:23:36.228Z,99146.22
2022-08-26T14:25:09.019Z,99142.72
2022-08-26T14:26:42.192Z,99145.59
2022-08-26T14:28:14.694Z,99139.56
2022-08-26T14:29:47.289Z,99138.28
2022-08-26T14:31:19.934Z,99144.94
2022-08-26T14:32:56.307Z,99143.94
2022-08-26T14:34:28.846Z,99139.94
2022-08-26T14:36:19.890Z,99146.28
2022-08-26T14:37:53.145Z,99146.34
2022-08-26T14:39:25.169Z,99142.53
2022-08-26T14:40:57.965Z,99138.69
2022-08-26T14:42:31.510Z,99143.03
2022-08-26T14:44:07.655Z,99137.34
2022-08-26T14:47:15.139Z,99142.13
2022-08-26T14:48:47.504Z,99139.28
2022-08-26T14:50:23.178Z,99143.63
2022-08-26T14:51:55.997Z,99141.31
2022-08-26T14:53:46.881Z,99142.84
2022-08-26T14:55:19.551Z,99138.03
2022-08-26T14:56:59.650Z,99139.69
2022-08-26T14:58:33.764Z,99133.41
2022-08-26T15:00:08.388Z,99131.03
2022-08-26T15:01:44.507Z,99132.03
2022-08-26T15:04:49.575Z,99132.03
2022-08-26T15:06:21.975Z,99132.88
2022-08-26T15:07:54.514Z,99131.38
2022-08-26T15:24:59.145Z,99129.75
2022-08-26T15:26:32.313Z,99128.63
2022-08-26T15:28:05.095Z,99125.81
2022-08-26T15:29:37.825Z,99122.00
2022-08-26T15:31:10.237Z,99126.84
2022-08-26T15:32:42.772Z,99122.03
2022-08-26T15:34:16.945Z,99134.75
2022-08-26T15:35:49.694Z,99125.41
2022-08-26T15:37:22.427Z,99132.91
2022-08-26T15:38:54.989Z,99127.25
2022-08-26T15:54:28.960Z,99115.94
2022-08-26T15:56:02.068Z,99115.44
2022-08-26T15:57:34.575Z,99113.81
2022-08-26T15:59:08.467Z,99119.34
2022-08-26T16:00:41.772Z,99114.00
2022-08-26T16:02:14.326Z,99112.84
2022-08-26T16:03:46.761Z,99113.50
2022-08-26T16:05:19.776Z,99115.34
2022-08-26T16:06:52.619Z,99112.53
2022-08-26T16:08:24.828Z,99116.03
2022-08-26T16:10:00.690Z,99113.19
2022-08-26T16:11:34.137Z,99105.69
2022-08-26T16:13:08.400Z,99111.84
2022-08-26T16:14:42.736Z,99114.81
2022-08-26T16:16:15.812Z,99112.13
2022-08-26T16:17:47.913Z,99113.63
2022-08-26T16:19:20.475Z,99114.78
2022-08-26T16:20:55.304Z,99107.78
2022-08-26T16:22:45.253Z,99115.72
2022-08-26T16:24:18.867Z,99104.38
2022-08-26T16:25:51.688Z,99109.34
2022-08-26T16:27:24.206Z,99110.44
2022-08-26T17:08:06.339Z,99140.19
2022-08-26T17:09:41.489Z,99134.63
2022-08-26T17:11:14.160Z,99128.53
2022-08-26T17:12:46.659Z,99135.63
2022-08-26T17:14:19.627Z,99132.84
2022-08-26T17:15:58.321Z,99140.44
2022-08-26T17:17:32.335Z,99134.88
2022-08-26T17:19:05.681Z,99143.28
2022-08-26T17:20:38.600Z,99147.59
2022-08-26T17:22:11.377Z,99139.69
2022-08-26T17:23:44.076Z,99145.53
2022-08-26T17:25:32.439Z,99148.19
2022-08-26T17:27:04.980Z,99153.22
2022-08-26T17:28:37.387Z,99147.22
2022-08-26T17:30:10.663Z,99145.28
2022-08-26T17:31:43.593Z,99139.16
2022-08-26T17:33:17.222Z,99143.31
2022-08-26T17:34:54.576Z,99139.56
2022-08-26T17:36:28.154Z,99149.88
2022-08-26T17:38:01.279Z,99149.53
2022-08-26T17:39:33.481Z,99148.44
2022-08-26T17:41:13.760Z,99152.59
2022-08-26T18:25:59.961Z,99193.31
2022-08-26T18:27:32.435Z,99192.72
2022-08-26T18:29:05.987Z,99187.94
2022-08-26T18:30:38.539Z,99192.59
2022-08-26T18:32:11.102Z,99194.78
2022-08-26T18:33:43.603Z,99197.66
2022-08-26T18:35:16.067Z,99185.22
2022-08-26T18:36:48.680Z,99193.75
2022-08-26T18:38:21.187Z,99192.53
2022-08-26T18:39:54.792Z,99185.25
2022-08-26T18:41:34.226Z,99194.38
2022-08-26T18:43:06.874Z,99191.22
2022-08-26T18:44:39.253Z,99196.03
2022-08-26T18:46:14.744Z,99196.25
2022-08-26T18:47:47.276Z,99195.91
2022-08-26T18:49:21.469Z,99205.75
2022-08-26T18:50:55.266Z,99208.03
2022-08-26T18:52:28.067Z,99205.16
2022-08-26T18:54:02.297Z,99206.72
2022-08-26T18:55:34.849Z,99209.59
2022-08-26T19:09:31.749Z,99222.81
2022-08-26T19:11:04.349Z,99225.88
2022-08-26T19:12:39.003Z,99225.88
2022-08-26T19:14:16.471Z,99233.53
2022-08-26T19:15:48.945Z,99234.97
2022-08-26T19:17:22.721Z,99225.50
2022-08-26T19:18:56.045Z,99233.50
2022-08-26T19:20:28.379Z,99231.50
2022-08-26T19:22:01.293Z,99237.59
2022-08-26T19:39:16.354Z,99233.47
2022-08-26T19:46:32.321Z,99237.63
2022-08-26T19:48:04.972Z,99236.25
2022-08-26T19:49:38.215Z,99240.69
2022-08-26T19:51:17.335Z,99235.63
2022-08-26T19:52:49.985Z,99233.53
2022-08-26T20:40:29.756Z,99257.41
2022-08-26T20:42:02.111Z,99265.41
2022-08-26T20:43:34.251Z,99266.56
2022-08-26T20:45:08.328Z,99267.53
2022-08-26T20:46:41.074Z,99268.47
2022-08-26T20:48:13.544Z,99271.50
2022-08-26T20:49:46.971Z,99264.75
2022-08-26T20:51:24.712Z,99278.78
2022-08-26T20:52:56.841Z,99274.63
2022-08-26T21:10:10.152Z,99276.69
2022-08-26T21:11:44.630Z,99272.25
2022-08-26T21:13:17.089Z,99269.94
2022-08-26T22:01:36.470Z,99274.44
2022-08-26T22:03:08.531Z,99276.63
2022-08-26T22:04:48.111Z,99274.44
2022-08-26T22:06:23.887Z,99278.69
2022-08-26T22:07:56.353Z,99274.53
2022-08-26T22:09:31.390Z,99272.59
2022-08-26T22:11:04.322Z,99275.31
2022-08-26T22:12:36.458Z,99276.25
2022-08-26T22:14:09.013Z,99272.00
2022-08-26T22:15:41.332Z,99273.13
2022-08-26T22:17:13.510Z,99269.66
2022-08-26T22:18:46.043Z,99265.38
2022-08-26T22:20:18.179Z,99272.41
2022-08-26T22:21:51.566Z,99270.72
2022-08-26T23:11:09.910Z,99262.69
2022-08-26T23:12:42.179Z,99266.97
2022-08-26T23:14:14.441Z,99267.81
2022-08-26T23:19:16.029Z,99267.28
2022-08-26T23:24:01.326Z,99261.19
2022-08-26T23:25:33.738Z,99258.56
2022-08-26T23:27:05.970Z,99262.13
2022-08-26T23:28:38.818Z,99272.72
2022-08-26T23:30:15.072Z,99269.34
2022-08-26T23:31:49.523Z,99272.72
2022-08-26T23:33:21.881Z,99264.09
2022-08-26T23:34:56.869Z,99274.88
2022-08-26T23:36:29.077Z,99259.44
2022-08-26T23:38:02.988Z,99274.34
2022-08-26T23:39:37.000Z,99264.13
2022-08-26T23:41:09.074Z,99277.25
